Time;durP1;ratioP1;P1;durP2;ratioP2;P2;SDS_P1;SDS_P2;PMS_P1;PMS_P2;Temp;Humidity;BMP_temperature;BMP_pressure;BME280_temperature;BME280_humidity;BME280_pressure;Samples;Min_cycle;Max_cycle;Signal;HPM_P1;HPM_P2
2021/04/17 00:02:07;;;;;;;4.03;0.93;;;5.20;77.70;;;;;;4976146;28;20112;-64
2021/04/17 00:04:38;;;;;;;3.65;1.00;;;5.10;78.20;;;;;;4985946;28;20254;-64
2021/04/17 00:07:06;;;;;;;4.90;0.88;;;5.00;78.60;;;;;;4992270;28;20042;-64
2021/04/17 00:09:35;;;;;;;4.38;0.88;;;5.00;78.30;;;;;;4989371;28;20369;-65
2021/04/17 00:12:12;;;;;;;2.80;0.82;;;4.90;78.60;;;;;;4992824;28;20050;-65
2021/04/17 00:14:42;;;;;;;1.48;0.63;;;4.90;78.60;;;;;;4993695;28;20334;-65
2021/04/17 00:17:11;;;;;;;3.60;0.90;;;4.70;79.00;;;;;;4993433;28;20241;-65
2021/04/17 00:19:42;;;;;;;1.65;0.40;;;4.60;79.40;;;;;;4992911;28;20101;-64
2021/04/17 00:22:13;;;;;;;1.88;0.75;;;4.50;79.80;;;;;;4993985;28;20054;-65
2021/04/17 00:24:43;;;;;;;;;;;4.30;80.30;;;;;;4993280;28;21420;-65
2021/04/17 00:27:10;;;;;;;2.03;0.55;;;4.20;80.70;;;;;;4989638;28;19993;-65
2021/04/17 00:29:38;;;;;;;1.15;0.45;;;4.20;81.20;;;;;;4992889;28;20058;-64
2021/04/17 00:32:08;;;;;;;1.70;0.60;;;4.10;81.60;;;;;;4974481;28;20069;-64
2021/04/17 00:34:36;;;;;;;1.88;0.52;;;4.00;81.50;;;;;;4992485;28;20042;-64
2021/04/17 00:37:09;;;;;;;1.75;0.68;;;4.00;81.70;;;;;;4995455;28;20050;-64
2021/04/17 00:39:37;;;;;;;1.65;0.60;;;3.90;82.20;;;;;;4996856;28;20066;-68
2021/04/17 00:42:07;;;;;;;2.30;0.52;;;3.80;82.80;;;;;;4993532;28;20057;-64
2021/04/17 00:44:36;;;;;;;;;;;3.70;82.80;;;;;;4992669;28;20066;-64
2021/04/17 00:47:06;;;;;;;1.05;0.40;;;3.70;82.60;;;;;;4991923;28;19992;-64
2021/04/17 00:49:34;;;;;;;1.70;0.60;;;3.70;82.50;;;;;;4988603;28;20046;-65
2021/04/17 00:52:06;;;;;;;3.70;0.82;;;3.70;82.70;;;;;;4982688;28;20227;-65
2021/04/17 00:54:35;;;;;;;1.95;0.75;;;3.70;82.70;;;;;;4997040;28;20034;-64
2021/04/17 00:57:05;;;;;;;2.33;0.85;;;3.70;82.90;;;;;;4995319;28;20329;-65
2021/04/17 00:59:33;;;;;;;2.63;0.85;;;3.70;83.00;;;;;;4980329;28;20391;-65
2021/04/17 01:02:03;;;;;;;1.83;0.73;;;3.70;83.00;;;;;;4990904;28;20066;-64
2021/04/17 01:04:48;;;;;;;2.50;1.00;;;3.70;82.90;;;;;;4994541;28;20227;-65
2021/04/17 01:07:21;;;;;;;3.72;1.10;;;3.70;82.70;;;;;;4991172;28;20054;-65
2021/04/17 01:10:02;;;;;;;1.83;0.68;;;3.70;82.50;;;;;;4989684;28;20034;-64
2021/04/17 01:12:35;;;;;;;3.00;0.63;;;3.80;82.10;;;;;;4993715;28;20057;-66
2021/04/17 01:15:11;;;;;;;1.65;0.95;;;3.80;81.70;;;;;;4994161;28;20199;-65
2021/04/17 01:17:39;;;;;;;1.20;0.60;;;3.90;81.40;;;;;;4994945;28;20373;-64
2021/04/17 01:20:12;;;;;;;1.55;0.80;;;3.90;81.30;;;;;;4993478;28;20165;-65
2021/04/17 01:22:42;;;;;;;2.00;0.70;;;3.90;81.30;;;;;;4991464;28;20456;-65
2021/04/17 01:25:14;;;;;;;3.28;1.05;;;3.90;81.30;;;;;;4997388;28;20034;-65
2021/04/17 01:27:42;;;;;;;1.10;0.60;;;3.90;81.20;;;;;;4989070;28;20231;-65
2021/04/17 01:30:12;;;;;;;1.73;0.70;;;3.90;81.10;;;;;;4991644;28;20054;-64
2021/04/17 01:32:40;;;;;;;3.30;0.67;;;4.00;81.00;;;;;;4993488;28;20117;-64
2021/04/17 01:35:11;;;;;;;1.08;0.52;;;4.00;81.00;;;;;;4990410;28;20050;-64
2021/04/17 01:37:56;;;;;;;;;;;4.00;81.00;;;;;;4989947;28;20354;-64
2021/04/17 01:40:26;;;;;;;1.42;0.60;;;4.10;81.00;;;;;;4993406;28;19948;-65
2021/04/17 01:42:54;;;;;;;1.73;0.70;;;4.10;80.90;;;;;;4991885;28;20042;-64
2021/04/17 01:45:24;;;;;;;1.67;0.63;;;4.20;80.70;;;;;;4992987;28;20054;-64
2021/04/17 01:47:54;;;;;;;1.42;0.70;;;4.20;80.50;;;;;;4994337;28;20446;-64
2021/04/17 01:50:22;;;;;;;1.45;0.60;;;4.10;80.60;;;;;;4991513;28;20499;-65
2021/04/17 01:52:50;;;;;;;1.48;0.75;;;4.10;80.60;;;;;;4986581;28;20289;-65
2021/04/17 01:55:18;;;;;;;2.22;0.90;;;4.20;80.50;;;;;;4989468;28;20042;-65
2021/04/17 01:57:47;;;;;;;1.92;0.60;;;4.20;80.20;;;;;;4987278;28;20057;-63
2021/04/17 02:00:16;;;;;;;3.38;0.98;;;4.30;80.20;;;;;;4985811;28;20137;-65
2021/04/17 02:02:44;;;;;;;2.05;0.77;;;4.20;80.10;;;;;;4989026;28;20061;-65
2021/04/17 02:05:12;;;;;;;0.50;0.28;;;4.20;80.40;;;;;;4992764;28;20046;-64
2021/04/17 02:07:39;;;;;;;1.88;0.60;;;4.10;80.50;;;;;;4986754;28;20060;-64
2021/04/17 02:10:13;;;;;;;1.63;0.60;;;4.00;80.80;;;;;;4985376;28;20252;-65
2021/04/17 02:12:40;;;;;;;1.75;0.75;;;3.90;81.20;;;;;;4988106;28;20346;-64
2021/04/17 02:15:08;;;;;;;1.38;0.60;;;3.80;81.30;;;;;;4988083;28;20404;-65
2021/04/17 02:17:50;;;;;;;1.40;0.40;;;3.80;81.30;;;;;;4987187;28;20326;-65
2021/04/17 02:20:27;;;;;;;2.47;0.45;;;3.70;81.50;;;;;;4986435;28;20077;-64
2021/04/17 02:22:55;;;;;;;1.73;0.57;;;3.70;81.60;;;;;;4987101;28;20064;-65
2021/04/17 02:25:23;;;;;;;2.03;0.60;;;3.70;81.80;;;;;;4987736;28;20062;-64
2021/04/17 02:27:50;;;;;;;2.25;0.70;;;3.60;81.60;;;;;;4985935;28;20056;-65
2021/04/17 02:30:18;;;;;;;2.20;0.77;;;3.60;82.00;;;;;;4987040;28;20069;-65
2021/04/17 02:32:47;;;;;;;2.38;0.85;;;3.50;82.00;;;;;;4987292;28;20097;-64
2021/04/17 02:35:15;;;;;;;1.60;0.45;;;3.50;82.20;;;;;;4986849;28;20054;-64
2021/04/17 02:37:45;;;;;;;1.90;0.50;;;3.40;82.20;;;;;;4984820;28;20129;-65
2021/04/17 02:40:12;;;;;;;5.68;1.00;;;3.40;82.50;;;;;;4986186;28;20057;-65
2021/04/17 02:42:40;;;;;;;2.03;0.65;;;3.30;82.70;;;;;;4985845;28;20082;-64
2021/04/17 02:45:08;;;;;;;1.85;0.70;;;3.30;82.40;;;;;;4987629;28;20061;-64
2021/04/17 02:47:35;;;;;;;2.47;0.77;;;3.20;83.10;;;;;;4987200;28;20326;-64
2021/04/17 02:50:04;;;;;;;2.88;0.90;;;3.20;83.10;;;;;;4989189;28;20080;-65
2021/04/17 02:52:32;;;;;;;3.95;0.80;;;3.20;83.10;;;;;;4987511;28;20042;-64
2021/04/17 02:54:59;;;;;;;1.77;0.73;;;3.10;82.80;;;;;;4989845;28;20050;-65
2021/04/17 02:57:25;;;;;;;1.40;0.60;;;3.10;83.10;;;;;;4986242;28;20203;-65
2021/04/17 02:59:53;;;;;;;1.70;0.55;;;3.00;83.30;;;;;;4985154;28;20050;-66
2021/04/17 03:02:20;;;;;;;2.15;0.80;;;3.00;83.40;;;;;;4969930;28;20089;-65
2021/04/17 03:04:47;;;;;;;1.70;0.57;;;3.00;83.00;;;;;;4967419;28;20043;-64
2021/04/17 03:07:15;;;;;;;2.03;0.98;;;2.90;83.70;;;;;;4987756;28;20061;-64
2021/04/17 03:09:42;;;;;;;1.30;0.70;;;2.80;84.00;;;;;;4993842;28;20269;-64
2021/04/17 03:12:10;;;;;;;2.35;0.80;;;2.70;84.40;;;;;;4989423;28;20050;-65
2021/04/17 03:14:39;;;;;;;1.27;0.70;;;2.60;84.90;;;;;;4990394;28;20668;-64
2021/04/17 03:17:07;;;;;;;2.17;0.80;;;2.50;85.20;;;;;;4989228;28;20352;-64
2021/04/17 03:19:34;;;;;;;1.25;0.47;;;2.40;85.20;;;;;;4988138;28;20310;-65
2021/04/17 03:22:02;;;;;;;1.67;0.98;;;2.40;85.20;;;;;;4988506;28;20046;-64
2021/04/17 03:24:31;;;;;;;2.65;0.60;;;2.40;85.50;;;;;;4988111;28;20050;-64
2021/04/17 03:26:58;;;;;;;2.17;1.10;;;2.40;85.50;;;;;;4986828;28;20049;-64
2021/04/17 03:29:24;;;;;;;1.95;0.73;;;2.40;85.60;;;;;;4985314;28;20061;-65
2021/04/17 03:31:53;;;;;;;1.80;0.80;;;2.40;85.60;;;;;;4988942;28;20277;-64
2021/04/17 03:34:20;;;;;;;4.28;0.90;;;2.30;86.00;;;;;;4974884;28;20054;-65
2021/04/17 03:36:47;;;;;;;4.47;0.85;;;2.40;86.20;;;;;;4987207;28;20226;-65
2021/04/17 03:39:14;;;;;;;1.67;0.80;;;2.30;86.50;;;;;;4997110;28;20073;-64
2021/04/17 03:41:42;;;;;;;2.72;1.10;;;2.30;86.50;;;;;;4998221;28;20046;-64
2021/04/17 03:44:11;;;;;;;1.25;0.70;;;2.20;86.40;;;;;;4993764;28;20065;-64
2021/04/17 03:46:38;;;;;;;1.65;1.00;;;2.20;86.40;;;;;;5002418;28;20088;-65
2021/04/17 03:49:07;;;;;;;1.00;0.60;;;2.20;86.10;;;;;;4978338;28;20050;-65
2021/04/17 03:51:34;;;;;;;2.90;1.00;;;2.20;86.30;;;;;;4995260;28;20061;-65
2021/04/17 03:54:01;;;;;;;2.00;0.77;;;2.00;86.30;;;;;;4994165;28;20060;-64
2021/04/17 03:56:28;;;;;;;1.95;1.33;;;2.00;86.30;;;;;;4998814;28;20065;-64
2021/04/17 03:58:56;;;;;;;1.63;0.93;;;1.90;86.60;;;;;;4992161;28;20077;-65
2021/04/17 04:01:23;;;;;;;2.05;0.90;;;1.90;86.80;;;;;;4989314;28;20133;-64
2021/04/17 04:03:50;;;;;;;2.05;0.77;;;1.80;87.00;;;;;;4987494;28;20065;-64
2021/04/17 04:06:18;;;;;;;2.75;0.73;;;1.80;87.00;;;;;;4990332;28;20058;-64
2021/04/17 04:08:45;;;;;;;1.05;0.60;;;1.70;86.90;;;;;;4989343;28;20054;-64
2021/04/17 04:11:13;;;;;;;1.70;0.77;;;1.70;87.00;;;;;;4991303;28;20359;-64
2021/04/17 04:13:41;;;;;;;0.80;0.45;;;1.70;86.90;;;;;;4991807;28;20075;-64
2021/04/17 04:16:09;;;;;;;2.60;0.90;;;1.80;86.90;;;;;;4991266;28;20050;-64
2021/04/17 04:18:36;;;;;;;0.93;0.43;;;1.70;86.60;;;;;;4991371;28;20317;-65
2021/04/17 04:21:06;;;;;;;2.00;0.95;;;1.70;86.70;;;;;;4988921;28;20073;-64
2021/04/17 04:23:33;;;;;;;2.63;0.90;;;1.70;86.90;;;;;;4990394;28;20074;-64
2021/04/17 04:26:00;;;;;;;2.55;0.70;;;1.70;87.00;;;;;;4990601;28;20061;-63
2021/04/17 04:28:32;;;;;;;1.65;0.57;;;1.60;87.00;;;;;;4990977;28;20062;-65
2021/04/17 04:31:00;;;;;;;2.05;1.00;;;1.70;86.70;;;;;;4992887;28;20146;-64
2021/04/17 04:33:29;;;;;;;2.58;0.68;;;1.70;86.70;;;;;;4986497;28;20081;-65
2021/04/17 04:35:56;;;;;;;1.77;0.95;;;1.60;87.30;;;;;;4988195;28;20061;-64
2021/04/17 04:38:23;;;;;;;2.28;1.23;;;1.60;87.70;;;;;;4987394;28;20245;-65
2021/04/17 04:40:50;;;;;;;1.92;0.85;;;1.60;87.80;;;;;;4989509;28;20077;-64
2021/04/17 04:43:16;;;;;;;1.67;0.57;;;1.60;87.80;;;;;;4991086;28;20270;-64
2021/04/17 04:45:43;;;;;;;1.63;0.88;;;1.50;87.90;;;;;;4986267;28;20402;-64
2021/04/17 04:48:10;;;;;;;3.08;1.10;;;1.60;88.10;;;;;;4985945;28;20050;-64
2021/04/17 04:50:39;;;;;;;3.33;1.30;;;1.50;88.10;;;;;;4985257;28;20356;-64
2021/04/17 04:53:07;;;;;;;3.20;1.23;;;1.60;87.90;;;;;;4984915;28;20065;-64
2021/04/17 04:55:34;;;;;;;5.07;1.40;;;1.70;87.80;;;;;;4983112;28;20076;-64
2021/04/17 04:58:02;;;;;;;2.22;0.82;;;1.70;87.50;;;;;;4987288;28;20050;-65
2021/04/17 05:00:30;;;;;;;3.03;1.13;;;1.80;87.30;;;;;;4983297;28;20043;-64
2021/04/17 05:02:57;;;;;;;2.53;1.42;;;2.00;87.10;;;;;;4981343;28;20046;-64
2021/04/17 05:05:24;;;;;;;2.40;1.10;;;1.90;87.40;;;;;;4981173;28;20424;-64
2021/04/17 05:07:52;;;;;;;3.78;1.00;;;2.00;86.90;;;;;;4982057;28;20050;-64
2021/04/17 05:10:19;;;;;;;3.50;1.05;;;2.10;86.90;;;;;;4982017;28;20101;-64
2021/04/17 05:12:46;;;;;;;2.08;0.80;;;2.10;86.60;;;;;;4988469;28;20042;-65
2021/04/17 05:15:14;;;;;;;3.28;0.85;;;2.10;86.30;;;;;;4986170;28;20053;-65
2021/04/17 05:17:41;;;;;;;3.92;1.35;;;2.20;86.40;;;;;;4982904;28;20054;-64
2021/04/17 05:20:09;;;;;;;2.60;1.25;;;2.40;86.00;;;;;;4983527;28;20156;-65
2021/04/17 05:22:36;;;;;;;3.25;1.60;;;2.40;86.00;;;;;;4988474;28;20052;-65
2021/04/17 05:25:05;;;;;;;3.20;1.48;;;2.50;86.00;;;;;;4986626;28;20123;-64
2021/04/17 05:27:32;;;;;;;3.97;1.67;;;2.50;86.10;;;;;;4985437;28;20236;-64
2021/04/17 05:29:59;;;;;;;3.53;2.03;;;2.70;85.50;;;;;;4988332;28;20062;-65
2021/04/17 05:32:26;;;;;;;4.68;2.08;;;2.70;85.20;;;;;;4985614;28;20058;-64
2021/04/17 05:34:54;;;;;;;6.63;2.05;;;2.70;85.20;;;;;;4989840;28;20064;-65
2021/04/17 05:37:21;;;;;;;4.07;1.95;;;2.80;85.20;;;;;;4986393;28;20101;-65
2021/04/17 05:39:48;;;;;;;6.30;2.88;;;2.80;85.20;;;;;;4984630;28;20052;-64
2021/04/17 05:42:16;;;;;;;4.75;1.85;;;2.90;85.10;;;;;;4986716;28;20228;-64
2021/04/17 05:44:44;;;;;;;4.18;2.08;;;2.80;85.30;;;;;;4984732;28;20045;-64
2021/04/17 05:47:17;;;;;;;7.13;2.30;;;2.70;84.90;;;;;;4986855;28;20058;-65
2021/04/17 05:49:46;;;;;;;3.35;1.33;;;2.80;85.00;;;;;;4986477;28;20058;-64
2021/04/17 05:52:13;;;;;;;4.47;1.60;;;2.70;85.00;;;;;;4986574;28;20214;-64
2021/04/17 05:54:40;;;;;;;4.60;1.67;;;2.70;85.10;;;;;;4987435;28;20045;-65
2021/04/17 05:57:07;;;;;;;10.07;1.65;;;2.70;85.30;;;;;;4982006;28;20235;-64
2021/04/17 05:59:35;;;;;;;3.97;1.92;;;2.70;85.50;;;;;;4987885;28;20355;-65
2021/04/17 06:02:03;;;;;;;3.20;1.70;;;2.80;85.20;;;;;;4982197;28;20062;-65
2021/04/17 06:04:31;;;;;;;3.70;1.48;;;2.90;85.00;;;;;;4981664;28;20234;-64
2021/04/17 06:06:57;;;;;;;5.55;2.08;;;3.00;84.90;;;;;;4987282;28;20337;-65
2021/04/17 06:09:24;;;;;;;3.92;1.48;;;3.20;84.70;;;;;;4984903;28;20121;-65
2021/04/17 06:11:51;;;;;;;5.65;1.92;;;3.50;83.60;;;;;;4987859;28;20361;-65
2021/04/17 06:14:19;;;;;;;5.38;2.20;;;3.70;82.90;;;;;;4988080;28;20379;-64
2021/04/17 06:16:47;;;;;;;5.20;2.13;;;3.90;82.30;;;;;;4983882;28;20345;-65
2021/04/17 06:19:14;;;;;;;5.18;2.28;;;4.00;81.80;;;;;;4984976;28;20058;-64
2021/04/17 06:21:41;;;;;;;6.97;2.03;;;4.10;81.40;;;;;;4987482;28;20070;-64
2021/04/17 06:24:08;;;;;;;4.97;2.22;;;4.20;81.20;;;;;;4987116;28;20117;-65
2021/04/17 06:26:35;;;;;;;7.25;2.03;;;4.30;80.70;;;;;;4986489;28;20503;-65
2021/04/17 06:29:03;;;;;;;6.18;2.88;;;4.50;80.40;;;;;;4990769;28;20115;-65
2021/04/17 06:31:30;;;;;;;4.18;2.15;;;4.60;79.70;;;;;;4987942;28;20076;-65
2021/04/17 06:33:58;;;;;;;3.97;2.15;;;4.70;79.60;;;;;;4983301;28;21119;-65
2021/04/17 06:36:25;;;;;;;4.78;1.67;;;4.80;79.00;;;;;;4987222;28;20153;-65
2021/04/17 06:38:52;;;;;;;6.28;2.33;;;5.00;78.70;;;;;;4982516;28;20058;-65
2021/04/17 06:41:22;;;;;;;4.55;1.98;;;5.10;77.90;;;;;;4985229;28;20062;-65
2021/04/17 06:43:50;;;;;;;4.63;2.65;;;5.30;77.70;;;;;;4983032;28;20325;-65
2021/04/17 06:46:19;;;;;;;9.73;2.88;;;5.40;76.90;;;;;;4987235;28;20140;-65
2021/04/17 06:48:47;;;;;;;12.93;3.83;;;5.50;76.70;;;;;;4979269;28;20050;-65
2021/04/17 06:51:17;;;;;;;4.80;2.50;;;5.70;76.30;;;;;;4981309;28;20061;-65
2021/04/17 06:53:45;;;;;;;5.20;2.20;;;5.90;75.40;;;;;;4983351;28;20054;-66
2021/04/17 06:56:12;;;;;;;4.00;2.10;;;6.00;74.60;;;;;;4989212;28;20050;-64
2021/04/17 06:58:40;;;;;;;5.88;2.10;;;6.10;74.00;;;;;;4989986;28;20063;-65
2021/04/17 07:01:07;;;;;;;5.85;2.10;;;6.00;72.80;;;;;;4988196;28;20050;-64
2021/04/17 07:03:35;;;;;;;6.70;3.30;;;6.10;73.10;;;;;;4988205;28;20218;-64
2021/04/17 07:06:04;;;;;;;5.70;2.20;;;6.10;73.20;;;;;;4992333;28;20070;-64
2021/04/17 07:08:32;;;;;;;5.80;2.25;;;6.00;73.00;;;;;;4990733;28;20405;-64
2021/04/17 07:11:02;;;;;;;4.40;2.10;;;6.00;74.30;;;;;;4990136;28;20264;-64
2021/04/17 07:13:34;;;;;;;3.92;1.73;;;6.10;73.40;;;;;;4989753;28;20034;-63
2021/04/17 07:16:09;;;;;;;4.50;1.88;;;6.20;73.10;;;;;;4989940;28;20117;-64
2021/04/17 07:18:38;;;;;;;6.53;2.45;;;6.20;72.60;;;;;;4989418;28;20042;-64
2021/04/17 07:21:28;;;;;;;4.28;1.95;;;6.20;71.90;;;;;;4989515;28;20050;-65
2021/04/17 07:23:56;;;;;;;6.40;1.73;;;6.30;72.60;;;;;;4970440;28;20055;-65
2021/04/17 07:26:25;;;;;;;6.63;2.95;;;6.30;72.30;;;;;;4988088;28;20058;-64
2021/04/17 07:29:05;;;;;;;8.18;2.58;;;6.40;71.10;;;;;;4990568;28;20561;-64
2021/04/17 07:31:34;;;;;;;4.65;1.40;;;6.50;70.30;;;;;;4993529;28;20079;-65
2021/04/17 07:34:14;;;;;;;3.35;1.48;;;6.60;68.60;;;;;;4989081;28;20122;-64
2021/04/17 07:36:53;;;;;;;4.53;1.50;;;6.80;67.20;;;;;;4991980;28;20129;-65
2021/04/17 07:39:30;;;;;;;2.90;1.23;;;7.10;64.70;;;;;;4992580;28;20332;-64
2021/04/17 07:42:06;;;;;;;4.35;1.50;;;7.30;61.40;;;;;;4989879;28;20118;-64
2021/04/17 07:44:42;;;;;;;3.40;1.23;;;7.40;61.70;;;;;;4989413;28;20061;-64
2021/04/17 07:47:10;;;;;;;2.63;1.20;;;7.50;59.60;;;;;;4992544;28;20042;-64
2021/04/17 07:49:38;;;;;;;4.28;1.50;;;7.70;59.00;;;;;;4991297;28;20058;-64
2021/04/17 07:52:09;;;;;;;5.68;0.95;;;8.00;59.40;;;;;;4990579;28;20101;-64
2021/04/17 07:54:38;;;;;;;3.05;1.33;;;8.30;56.50;;;;;;4991581;28;20038;-64
2021/04/17 07:57:07;;;;;;;4.13;1.40;;;8.70;57.90;;;;;;4991264;28;20043;-63
2021/04/17 07:59:36;;;;;;;4.07;1.20;;;8.90;55.60;;;;;;4991242;28;20094;-66
2021/04/17 08:02:04;;;;;;;5.20;1.23;;;9.10;54.80;;;;;;4991232;28;20257;-65
2021/04/17 08:04:31;;;;;;;5.20;1.52;;;9.20;54.00;;;;;;4992500;28;20093;-65
2021/04/17 08:07:01;;;;;;;4.57;1.48;;;9.50;53.30;;;;;;4991121;28;20353;-64
2021/04/17 08:09:32;;;;;;;2.42;1.35;;;9.60;52.10;;;;;;4989981;28;20043;-64
2021/04/17 08:12:01;;;;;;;6.20;2.67;;;9.70;53.00;;;;;;4984798;28;20089;-64
2021/04/17 08:14:48;;;;;;;5.88;1.30;;;9.70;51.40;;;;;;4972484;28;20166;-64
2021/04/17 08:17:18;;;;;;;5.22;1.40;;;9.60;51.60;;;;;;4987089;28;20050;-64
2021/04/17 08:19:46;;;;;;;4.43;1.23;;;9.70;52.20;;;;;;4988558;28;20058;-65
2021/04/17 08:22:13;;;;;;;3.70;1.48;;;9.70;51.60;;;;;;4986287;28;20397;-65
2021/04/17 08:24:40;;;;;;;4.35;1.30;;;9.90;52.20;;;;;;4985080;28;20254;-65
2021/04/17 08:27:09;;;;;;;6.90;2.40;;;10.20;51.40;;;;;;4988492;28;20410;-65
2021/04/17 08:29:55;;;;;;;4.00;1.60;;;10.20;50.50;;;;;;5072866;27;20396;-65
2021/04/17 08:32:36;;;;;;;8.18;1.55;;;10.40;49.50;;;;;;5057650;28;20870;-65
2021/04/17 08:35:11;;;;;;;4.57;1.60;;;10.50;49.20;;;;;;5057481;28;20306;-65
2021/04/17 08:38:04;;;;;;;3.88;1.20;;;10.60;48.40;;;;;;5055372;28;20359;-65
2021/04/17 08:40:41;;;;;;;2.40;1.25;;;10.70;49.00;;;;;;5054641;28;20061;-65
2021/04/17 08:43:28;;;;;;;4.40;1.13;;;10.80;48.10;;;;;;5051487;28;20340;-65
2021/04/17 08:46:07;;;;;;;6.07;1.90;;;10.90;48.30;;;;;;5056226;28;20169;-66
2021/04/17 08:48:58;;;;;;;3.28;1.30;;;10.90;47.70;;;;;;5052545;28;20049;-65
2021/04/17 08:51:43;;;;;;;3.03;1.35;;;11.30;47.80;;;;;;5040757;28;20083;-65
2021/04/17 08:54:22;;;;;;;3.63;1.30;;;11.50;46.70;;;;;;5056845;28;20052;-65
2021/04/17 08:56:54;;;;;;;4.78;1.30;;;11.50;46.00;;;;;;5057781;28;20351;-64
2021/04/17 08:59:23;;;;;;;3.55;1.35;;;11.70;45.80;;;;;;5068454;28;20064;-65
2021/04/17 09:01:54;;;;;;;4.47;1.42;;;11.80;45.20;;;;;;5050589;28;20068;-65
2021/04/17 09:04:22;;;;;;;3.90;1.48;;;12.10;45.20;;;;;;5051599;28;20277;-65
2021/04/17 09:06:51;;;;;;;3.63;1.33;;;12.50;43.60;;;;;;5059847;28;20056;-64
2021/04/17 09:09:26;;;;;;;4.38;1.67;;;12.50;42.30;;;;;;5056174;28;20036;-64
2021/04/17 09:11:54;;;;;;;3.55;1.52;;;12.60;42.80;;;;;;5054121;28;20068;-65
2021/04/17 09:14:58;;;;;;;8.10;1.48;;;12.50;41.90;;;;;;5056256;28;20053;-64
2021/04/17 09:17:49;;;;;;;3.15;1.30;;;12.20;42.50;;;;;;5054573;28;20056;-65
2021/04/17 09:20:37;;;;;;;5.07;1.50;;;12.10;42.90;;;;;;5056383;28;20352;-64
2021/04/17 09:23:04;;;;;;;5.03;1.70;;;11.70;43.70;;;;;;5056307;28;20091;-65
2021/04/17 09:25:49;;;;;;;4.53;1.52;;;11.70;44.10;;;;;;5058236;28;20041;-65
2021/04/17 09:28:16;;;;;;;3.70;1.35;;;11.70;43.80;;;;;;5061480;28;20075;-65
2021/04/17 09:30:50;;;;;;;4.93;1.55;;;11.50;43.80;;;;;;5058955;28;20053;-64
2021/04/17 09:33:17;;;;;;;4.20;1.27;;;11.40;44.20;;;;;;5060055;28;20339;-65
2021/04/17 09:35:45;;;;;;;5.10;1.25;;;11.50;43.50;;;;;;5061436;28;20327;-65
2021/04/17 09:38:21;;;;;;;4.63;1.48;;;11.40;43.70;;;;;;5057282;28;20052;-65
2021/04/17 09:40:51;;;;;;;3.60;1.23;;;11.20;44.10;;;;;;5050644;28;20111;-65
2021/04/17 09:43:31;;;;;;;7.13;1.65;;;11.20;44.60;;;;;;5045622;28;20073;-64
2021/04/17 09:45:59;;;;;;;;;;;10.90;45.30;;;;;;5045521;28;20061;-65
2021/04/17 09:48:27;;;;;;;5.30;1.27;;;10.90;44.50;;;;;;5042501;28;19924;-65
2021/04/17 09:50:56;;;;;;;3.83;1.10;;;11.00;45.20;;;;;;5049658;28;20435;-65
2021/04/17 09:53:29;;;;;;;7.00;1.23;;;11.00;45.40;;;;;;5043603;28;20060;-65
2021/04/17 09:55:58;;;;;;;3.15;1.15;;;11.00;45.70;;;;;;5041014;28;20045;-64
2021/04/17 09:58:28;;;;;;;3.47;0.90;;;11.00;45.30;;;;;;5040293;28;20052;-65
2021/04/17 10:00:56;;;;;;;2.55;0.63;;;11.10;45.20;;;;;;5035243;28;20289;-66
2021/04/17 10:03:30;;;;;;;5.65;1.35;;;11.10;45.30;;;;;;5039702;28;20258;-65
2021/04/17 10:06:28;;;;;;;5.85;2.33;;;11.10;45.20;;;;;;5040068;28;20088;-65
2021/04/17 10:08:57;;;;;;;2.92;1.67;;;11.40;45.40;;;;;;5044883;28;20053;-65
2021/04/17 10:11:27;;;;;;;4.50;1.52;;;11.60;44.50;;;;;;5036235;28;20061;-65
2021/04/17 10:13:55;;;;;;;4.20;1.07;;;11.50;44.60;;;;;;5042698;28;20060;-65
2021/04/17 10:16:31;;;;;;;4.13;1.50;;;11.70;44.60;;;;;;5047223;28;20370;-65
2021/04/17 10:19:02;;;;;;;10.10;2.83;;;11.50;44.70;;;;;;5038115;28;20049;-65
2021/04/17 10:21:34;;;;;;;6.45;1.35;;;11.50;43.90;;;;;;5039563;28;20234;-65
2021/04/17 10:24:23;;;;;;;4.40;1.30;;;11.00;44.40;;;;;;5042056;28;20076;-64
2021/04/17 10:26:57;;;;;;;10.45;2.53;;;11.10;44.90;;;;;;5040080;28;20064;-64
2021/04/17 10:29:46;;;;;;;5.18;1.90;;;11.00;45.50;;;;;;5053209;28;20064;-64
2021/04/17 10:32:16;;;;;;;2.58;1.20;;;11.00;44.80;;;;;;5042425;28;20116;-65
2021/04/17 10:34:47;;;;;;;5.35;1.40;;;10.70;45.40;;;;;;5041382;28;20064;-65
2021/04/17 10:37:16;;;;;;;4.13;1.30;;;10.80;45.60;;;;;;5042023;28;20064;-66
2021/04/17 10:40:04;;;;;;;4.03;1.10;;;10.80;45.70;;;;;;5040095;28;20072;-65
2021/04/17 10:42:45;;;;;;;1.90;1.08;;;10.70;45.10;;;;;;5042596;28;20060;-65
2021/04/17 10:45:15;;;;;;;4.35;1.88;;;11.00;45.00;;;;;;5041432;28;20122;-65
2021/04/17 10:47:43;;;;;;;2.80;1.23;;;11.30;44.80;;;;;;5043469;28;20057;-65
2021/04/17 10:50:20;;;;;;;5.53;1.50;;;11.80;44.40;;;;;;5045771;28;20086;-65
2021/04/17 10:53:01;;;;;;;3.30;1.40;;;12.60;42.10;;;;;;5045291;28;20057;-65
2021/04/17 10:55:34;;;;;;;2.78;0.98;;;13.00;41.40;;;;;;5046530;28;20112;-65
2021/04/17 10:58:01;;;;;;;5.28;1.10;;;13.40;40.50;;;;;;5039969;28;20114;-65
2021/04/17 11:00:31;;;;;;;3.42;1.30;;;13.60;39.30;;;;;;5041394;28;20112;-65
2021/04/17 11:02:59;;;;;;;4.38;2.65;;;13.10;39.10;;;;;;5037792;28;20064;-65
2021/04/17 11:05:31;;;;;;;8.90;1.52;;;12.70;40.20;;;;;;5050660;28;20099;-66
2021/04/17 11:08:00;;;;;;;3.72;1.52;;;12.90;40.60;;;;;;5039418;28;20283;-65
2021/04/17 11:10:31;;;;;;;6.78;1.60;;;12.50;40.30;;;;;;5043187;28;20057;-65
2021/04/17 11:12:58;;;;;;;3.28;1.63;;;12.30;41.50;;;;;;5043405;28;20240;-65
2021/04/17 11:15:29;;;;;;;3.88;1.23;;;12.40;41.20;;;;;;5035963;28;20163;-65
2021/04/17 11:18:09;;;;;;;3.70;1.40;;;12.50;41.00;;;;;;5042129;28;20060;-65
2021/04/17 11:20:44;;;;;;;;;;;12.60;41.60;;;;;;5044197;28;20056;-64
2021/04/17 11:23:29;;;;;;;6.90;1.45;;;13.00;40.90;;;;;;5047724;28;19924;-65
2021/04/17 11:25:56;;;;;;;2.88;1.15;;;12.60;40.90;;;;;;5047307;28;20055;-65
2021/04/17 11:28:23;;;;;;;5.78;1.77;;;12.80;40.70;;;;;;5053878;28;20052;-64
2021/04/17 11:30:51;;;;;;;2.65;1.08;;;13.20;40.50;;;;;;5050394;28;20053;-65
2021/04/17 11:33:18;;;;;;;4.32;1.33;;;13.40;39.00;;;;;;5047843;28;20103;-64
2021/04/17 11:35:46;;;;;;;4.30;1.00;;;13.70;39.10;;;;;;5046361;28;20119;-64
2021/04/17 11:38:13;;;;;;;4.95;1.38;;;13.90;38.60;;;;;;5058347;28;20060;-65
2021/04/17 11:40:40;;;;;;;4.45;0.88;;;13.40;39.10;;;;;;5047840;28;20068;-65
2021/04/17 11:43:07;;;;;;;3.05;1.20;;;13.20;39.50;;;;;;5053911;28;20060;-64
2021/04/17 11:45:34;;;;;;;3.13;1.30;;;13.30;39.80;;;;;;5052578;28;20064;-65
2021/04/17 11:48:03;;;;;;;2.75;1.10;;;13.30;39.60;;;;;;5058798;28;20375;-64
2021/04/17 11:50:31;;;;;;;2.60;1.20;;;13.10;39.60;;;;;;5049468;28;20352;-65
2021/04/17 11:52:58;;;;;;;3.65;1.02;;;13.10;39.60;;;;;;5046444;28;20311;-65
2021/04/17 11:55:25;;;;;;;6.38;1.50;;;12.90;39.80;;;;;;5047233;28;20056;-64
2021/04/17 11:57:54;;;;;;;4.05;1.10;;;12.60;40.50;;;;;;5046389;28;20065;-65
2021/04/17 12:00:22;;;;;;;3.38;0.85;;;12.40;41.40;;;;;;5044294;28;20052;-65
2021/04/17 12:02:50;;;;;;;2.92;0.88;;;12.30;41.90;;;;;;5042255;28;20332;-65
2021/04/17 12:05:17;;;;;;;2.63;0.93;;;12.40;41.60;;;;;;5043148;28;20048;-64
2021/04/17 12:07:45;;;;;;;2.65;1.17;;;12.50;41.30;;;;;;5041769;28;20053;-64
2021/04/17 12:10:16;;;;;;;6.05;1.40;;;12.50;41.40;;;;;;5040997;28;20057;-64
2021/04/17 12:12:43;;;;;;;4.05;1.50;;;12.60;41.80;;;;;;5054514;28;20124;-64
2021/04/17 12:15:12;;;;;;;5.55;1.27;;;12.80;41.00;;;;;;5040645;28;20064;-64
2021/04/17 12:17:39;;;;;;;4.70;1.52;;;12.80;40.70;;;;;;5041265;28;20061;-68
2021/04/17 12:20:14;;;;;;;2.50;1.33;;;12.60;40.70;;;;;;5038524;28;20041;-63
2021/04/17 12:22:42;;;;;;;3.25;1.00;;;12.40;40.90;;;;;;5042421;28;20075;-63
2021/04/17 12:25:10;;;;;;;2.05;0.80;;;12.20;41.50;;;;;;5039255;28;20057;-62
2021/04/17 12:27:38;;;;;;;2.88;1.15;;;12.30;41.50;;;;;;5037739;28;20084;-62
2021/04/17 12:30:07;;;;;;;4.50;1.40;;;12.50;41.40;;;;;;5034511;28;20073;-63
2021/04/17 12:32:33;;;;;;;5.03;1.95;;;12.30;42.20;;;;;;5038004;28;22197;-63
2021/04/17 12:35:00;;;;;;;2.60;1.33;;;12.30;41.80;;;;;;5044488;28;20344;-63
2021/04/17 12:37:30;;;;;;;7.47;1.75;;;12.40;41.60;;;;;;5039498;28;20058;-65
2021/04/17 12:39:57;;;;;;;7.95;2.58;;;12.30;41.50;;;;;;5037356;28;20045;-65
2021/04/17 12:42:24;;;;;;;5.57;1.55;;;12.30;42.20;;;;;;5035975;28;20095;-64
2021/04/17 12:44:52;;;;;;;5.30;1.58;;;12.20;42.20;;;;;;5037111;28;20057;-63
2021/04/17 12:47:19;;;;;;;3.83;1.10;;;12.30;41.50;;;;;;5042466;28;20065;-63
2021/04/17 12:49:46;;;;;;;4.40;1.58;;;12.10;41.10;;;;;;5036008;28;20323;-64
2021/04/17 12:52:13;;;;;;;4.53;1.25;;;11.70;42.80;;;;;;5040568;28;20061;-63
2021/04/17 12:54:40;;;;;;;2.53;1.02;;;11.70;42.30;;;;;;5049257;28;20106;-63
2021/04/17 12:57:09;;;;;;;6.30;1.83;;;11.70;42.00;;;;;;5038980;28;20072;-63
2021/04/17 12:59:36;;;;;;;4.13;1.58;;;11.60;42.60;;;;;;5037344;28;20068;-64
2021/04/17 13:02:04;;;;;;;3.15;1.15;;;11.90;42.30;;;;;;5038861;28;20056;-63
2021/04/17 13:04:31;;;;;;;3.92;1.10;;;12.00;42.30;;;;;;5041254;28;20068;-63
2021/04/17 13:06:58;;;;;;;5.30;1.08;;;12.10;42.60;;;;;;5045123;28;20098;-63
2021/04/17 13:09:26;;;;;;;3.30;1.00;;;12.00;42.40;;;;;;5045776;28;20084;-63
2021/04/17 13:11:58;;;;;;;5.10;1.20;;;12.10;41.80;;;;;;5042788;28;20155;-64